sensor_id;sensor_type;location;lat;lon;timestamp;pressure;altitude;pressure_sealevel;temperature;humidity
46534;BME280;32260;52.008;4.752;2023-12-14T00:02:25;101094.56;;;8.26;73.60
46534;BME280;32260;52.008;4.752;2023-12-14T00:04:51;101105.94;;;8.33;73.52
46534;BME280;32260;52.008;4.752;2023-12-14T00:07:17;101111.25;;;8.32;73.33
46534;BME280;32260;52.008;4.752;2023-12-14T00:09:43;101113.91;;;8.30;73.59
46534;BME280;32260;52.008;4.752;2023-12-14T00:12:10;101121.78;;;8.35;73.09
46534;BME280;32260;52.008;4.752;2023-12-14T00:14:36;101127.03;;;8.39;73.50
46534;BME280;32260;52.008;4.752;2023-12-14T00:17:02;101132.34;;;8.33;73.25
46534;BME280;32260;52.008;4.752;2023-12-14T00:19:28;101141.16;;;8.31;73.31
46534;BME280;32260;52.008;4.752;2023-12-14T00:21:54;101141.16;;;8.35;73.16
46534;BME280;32260;52.008;4.752;2023-12-14T00:24:21;101149.94;;;8.36;73.28
46534;BME280;32260;52.008;4.752;2023-12-14T00:26:47;101149.97;;;8.31;72.73
46534;BME280;32260;52.008;4.752;2023-12-14T00:29:13;101155.25;;;8.33;72.49
46534;BME280;32260;52.008;4.752;2023-12-14T00:31:40;101159.56;;;8.45;73.08
46534;BME280;32260;52.008;4.752;2023-12-14T00:34:06;101160.47;;;8.47;72.98
46534;BME280;32260;52.008;4.752;2023-12-14T00:36:35;101163.09;;;8.47;72.95
46534;BME280;32260;52.008;4.752;2023-12-14T00:39:01;101171.00;;;8.45;72.63
46534;BME280;32260;52.008;4.752;2023-12-14T00:41:27;101181.59;;;8.42;72.50
46534;BME280;32260;52.008;4.752;2023-12-14T00:43:54;101187.75;;;8.39;72.81
46534;BME280;32260;52.008;4.752;2023-12-14T00:46:20;101200.13;;;8.33;72.75
46534;BME280;32260;52.008;4.752;2023-12-14T00:48:46;101196.59;;;8.35;72.40
46534;BME280;32260;52.008;4.752;2023-12-14T00:51:12;101197.50;;;8.31;72.33
46534;BME280;32260;52.008;4.752;2023-12-14T00:53:38;101195.66;;;8.41;72.89
46534;BME280;32260;52.008;4.752;2023-12-14T00:56:07;101198.34;;;8.36;72.57
46534;BME280;32260;52.008;4.752;2023-12-14T00:58:33;101213.25;;;8.42;72.67
46534;BME280;32260;52.008;4.752;2023-12-14T01:01:00;101208.88;;;8.41;72.24
46534;BME280;32260;52.008;4.752;2023-12-14T01:03:26;101208.91;;;8.36;72.07
46534;BME280;32260;52.008;4.752;2023-12-14T01:05:52;101219.44;;;8.39;72.10
46534;BME280;32260;52.008;4.752;2023-12-14T01:08:18;101220.31;;;8.38;72.67
46534;BME280;32260;52.008;4.752;2023-12-14T01:10:45;101225.66;;;8.34;72.48
46534;BME280;32260;52.008;4.752;2023-12-14T01:13:11;101240.66;;;8.24;72.55
46534;BME280;32260;52.008;4.752;2023-12-14T01:15:37;101237.13;;;8.22;72.39
46534;BME280;32260;52.008;4.752;2023-12-14T01:18:03;101247.69;;;8.26;72.40
46534;BME280;32260;52.008;4.752;2023-12-14T01:20:29;101243.22;;;8.36;72.62
46534;BME280;32260;52.008;4.752;2023-12-14T01:22:56;101243.25;;;8.30;72.42
46534;BME280;32260;52.008;4.752;2023-12-14T01:25:22;101249.41;;;8.29;72.01
46534;BME280;32260;52.008;4.752;2023-12-14T01:27:48;101249.41;;;8.35;72.42
46534;BME280;32260;52.008;4.752;2023-12-14T01:30:14;101249.41;;;8.35;72.18
46534;BME280;32260;52.008;4.752;2023-12-14T01:32:40;101259.09;;;8.29;72.18
46534;BME280;32260;52.008;4.752;2023-12-14T01:35:07;101263.53;;;8.19;71.78
46534;BME280;32260;52.008;4.752;2023-12-14T01:37:33;101267.03;;;8.21;72.23
46534;BME280;32260;52.008;4.752;2023-12-14T01:39:59;101269.69;;;8.24;72.23
46534;BME280;32260;52.008;4.752;2023-12-14T01:49:18;101290.78;;;8.21;72.01
46534;BME280;32260;52.008;4.752;2023-12-14T01:51:44;101298.72;;;8.25;71.96
46534;BME280;32260;52.008;4.752;2023-12-14T01:54:10;101294.31;;;8.24;71.95
46534;BME280;32260;52.008;4.752;2023-12-14T01:56:36;101310.16;;;8.24;71.94
46534;BME280;32260;52.008;4.752;2023-12-14T01:59:02;101322.47;;;8.25;72.25
46534;BME280;32260;52.008;4.752;2023-12-14T02:04:04;101339.19;;;8.28;72.41
46534;BME280;32260;52.008;4.752;2023-12-14T02:06:32;101334.78;;;8.23;71.97
46534;BME280;32260;52.008;4.752;2023-12-14T02:08:58;101346.25;;;8.24;71.56
46534;BME280;32260;52.008;4.752;2023-12-14T02:11:25;101342.72;;;8.31;72.07
46534;BME280;32260;52.008;4.752;2023-12-14T02:13:51;101350.59;;;8.34;72.28
46534;BME280;32260;52.008;4.752;2023-12-14T02:16:17;101346.22;;;8.21;72.01
46534;BME280;32260;52.008;4.752;2023-12-14T02:18:44;101353.28;;;8.31;71.88
46534;BME280;32260;52.008;4.752;2023-12-14T02:21:11;101350.63;;;8.28;72.08
46534;BME280;32260;52.008;4.752;2023-12-14T02:23:45;101358.53;;;8.37;71.69
46534;BME280;32260;52.008;4.752;2023-12-14T02:26:12;101362.06;;;8.30;71.90
46534;BME280;32260;52.008;4.752;2023-12-14T02:28:38;101366.47;;;8.28;71.50
46534;BME280;32260;52.008;4.752;2023-12-14T03:41:59;101428.94;;;8.26;71.38
46534;BME280;32260;52.008;4.752;2023-12-14T03:44:25;101435.97;;;8.27;70.97
46534;BME280;32260;52.008;4.752;2023-12-14T03:46:52;101438.66;;;8.16;70.67
46534;BME280;32260;52.008;4.752;2023-12-14T03:49:20;101444.78;;;8.26;71.03
46534;BME280;32260;52.008;4.752;2023-12-14T03:51:46;101440.38;;;8.22;70.93
46534;BME280;32260;52.008;4.752;2023-12-14T03:54:12;101450.94;;;8.22;70.65
46534;BME280;32260;52.008;4.752;2023-12-14T03:56:38;101447.41;;;8.18;70.43
46534;BME280;32260;52.008;4.752;2023-12-14T03:59:04;101457.97;;;8.26;70.92
46534;BME280;32260;52.008;4.752;2023-12-14T04:01:30;101457.97;;;8.24;70.38
46534;BME280;32260;52.008;4.752;2023-12-14T04:03:56;101458.84;;;8.30;70.35
46534;BME280;32260;52.008;4.752;2023-12-14T04:06:23;101461.50;;;8.30;70.69
46534;BME280;32260;52.008;4.752;2023-12-14T04:08:49;101472.09;;;8.31;70.68
46534;BME280;32260;52.008;4.752;2023-12-14T04:11:15;101466.78;;;8.33;70.23
46534;BME280;32260;52.008;4.752;2023-12-14T04:13:41;101477.34;;;8.26;70.64
46534;BME280;32260;52.008;4.752;2023-12-14T04:16:07;101481.72;;;8.26;70.24
46534;BME280;32260;52.008;4.752;2023-12-14T04:18:34;101480.00;;;8.25;70.41
46534;BME280;32260;52.008;4.752;2023-12-14T04:21:00;101494.94;;;8.26;69.97
46534;BME280;32260;52.008;4.752;2023-12-14T04:23:26;101497.59;;;8.23;70.00
46534;BME280;32260;52.008;4.752;2023-12-14T04:25:53;101489.66;;;8.26;70.49
46534;BME280;32260;52.008;4.752;2023-12-14T04:28:19;101498.44;;;8.23;69.82
46534;BME280;32260;52.008;4.752;2023-12-14T04:30:45;101497.56;;;8.20;69.20
46534;BME280;32260;52.008;4.752;2023-12-14T04:33:11;101508.13;;;8.20;69.28
46534;BME280;32260;52.008;4.752;2023-12-14T04:35:37;101517.84;;;8.16;69.16
46534;BME280;32260;52.008;4.752;2023-12-14T04:38:03;101520.47;;;8.21;69.85
46534;BME280;32260;52.008;4.752;2023-12-14T04:40:30;101528.38;;;8.13;69.39
46534;BME280;32260;52.008;4.752;2023-12-14T04:42:56;101535.41;;;8.17;69.03
46534;BME280;32260;52.008;4.752;2023-12-14T04:45:22;101540.69;;;8.16;69.05
46534;BME280;32260;52.008;4.752;2023-12-14T04:47:48;101548.63;;;8.22;69.18
46534;BME280;32260;52.008;4.752;2023-12-14T04:50:15;101560.94;;;8.20;68.82
46534;BME280;32260;52.008;4.752;2023-12-14T04:52:42;101551.28;;;8.25;68.88
46534;BME280;32260;52.008;4.752;2023-12-14T04:55:08;101560.06;;;8.27;69.03
46534;BME280;32260;52.008;4.752;2023-12-14T04:57:35;101573.28;;;8.24;68.57
46534;BME280;32260;52.008;4.752;2023-12-14T05:00:03;101576.78;;;8.26;68.38
46534;BME280;32260;52.008;4.752;2023-12-14T05:02:31;101586.47;;;8.24;68.42
46534;BME280;32260;52.008;4.752;2023-12-14T05:04:57;101597.03;;;8.25;68.70
46534;BME280;32260;52.008;4.752;2023-12-14T05:07:24;101591.75;;;8.18;67.81
46534;BME280;32260;52.008;4.752;2023-12-14T05:09:50;101608.44;;;8.20;68.01
46534;BME280;32260;52.008;4.752;2023-12-14T05:12:16;101611.09;;;8.23;68.36
46534;BME280;32260;52.008;4.752;2023-12-14T05:14:42;101606.69;;;8.16;68.00
46534;BME280;32260;52.008;4.752;2023-12-14T05:17:08;101611.94;;;8.05;67.88
46534;BME280;32260;52.008;4.752;2023-12-14T05:19:34;101619.84;;;8.05;67.83
46534;BME280;32260;52.008;4.752;2023-12-14T05:22:00;101635.69;;;8.03;67.94
46534;BME280;32260;52.008;4.752;2023-12-14T05:24:26;101633.03;;;8.03;67.81
46534;BME280;32260;52.008;4.752;2023-12-14T05:26:53;101642.69;;;7.90;66.97
46534;BME280;32260;52.008;4.752;2023-12-14T05:29:19;101641.84;;;8.02;67.93
46534;BME280;32260;52.008;4.752;2023-12-14T05:31:47;101640.97;;;8.05;68.22
46534;BME280;32260;52.008;4.752;2023-12-14T05:34:14;101642.72;;;7.95;66.96
46534;BME280;32260;52.008;4.752;2023-12-14T05:36:41;101643.50;;;7.78;66.83
46534;BME280;32260;52.008;4.752;2023-12-14T05:39:08;101639.16;;;7.85;66.93
46534;BME280;32260;52.008;4.752;2023-12-14T05:41:38;101636.50;;;7.90;67.80
46534;BME280;32260;52.008;4.752;2023-12-14T05:44:05;101643.53;;;7.85;66.75
46534;BME280;32260;52.008;4.752;2023-12-14T05:46:31;101657.63;;;7.90;67.43
46534;BME280;32260;52.008;4.752;2023-12-14T05:48:57;101661.13;;;7.83;65.88
46534;BME280;32260;52.008;4.752;2023-12-14T05:51:28;101656.72;;;7.83;65.84
46534;BME280;32260;52.008;4.752;2023-12-14T05:53:54;101662.91;;;7.90;66.47
46534;BME280;32260;52.008;4.752;2023-12-14T05:56:21;101677.88;;;7.92;67.13
46534;BME280;32260;52.008;4.752;2023-12-14T05:58:47;101671.69;;;7.87;66.41
46534;BME280;32260;52.008;4.752;2023-12-14T06:01:13;101676.97;;;7.86;66.79
46534;BME280;32260;52.008;4.752;2023-12-14T06:03:39;101681.38;;;7.88;66.73
46534;BME280;32260;52.008;4.752;2023-12-14T06:06:05;101678.75;;;7.93;66.89
46534;BME280;32260;52.008;4.752;2023-12-14T06:08:31;101684.00;;;7.87;66.77
46534;BME280;32260;52.008;4.752;2023-12-14T06:10:57;101687.50;;;7.84;66.26
46534;BME280;32260;52.008;4.752;2023-12-14T06:13:23;101684.88;;;7.84;66.95
46534;BME280;32260;52.008;4.752;2023-12-14T06:15:50;101696.31;;;7.91;66.67
46534;BME280;32260;52.008;4.752;2023-12-14T06:18:17;101703.38;;;7.92;67.43
46534;BME280;32260;52.008;4.752;2023-12-14T06:20:43;101702.50;;;7.91;66.86
46534;BME280;32260;52.008;4.752;2023-12-14T06:23:09;101709.56;;;7.94;67.19
46534;BME280;32260;52.008;4.752;2023-12-14T06:25:36;101714.81;;;7.97;67.24
46534;BME280;32260;52.008;4.752;2023-12-14T06:28:02;101716.59;;;7.97;66.41
46534;BME280;32260;52.008;4.752;2023-12-14T06:30:29;101720.13;;;8.00;66.91
46534;BME280;32260;52.008;4.752;2023-12-14T06:32:55;101736.81;;;7.96;66.40
46534;BME280;32260;52.008;4.752;2023-12-14T06:35:21;101743.03;;;8.01;67.17
46534;BME280;32260;52.008;4.752;2023-12-14T06:37:48;101746.50;;;7.97;67.45
46534;BME280;32260;52.008;4.752;2023-12-14T06:40:14;101758.78;;;7.93;66.87
46534;BME280;32260;52.008;4.752;2023-12-14T06:42:40;101762.34;;;7.94;67.18
46534;BME280;32260;52.008;4.752;2023-12-14T06:45:08;101771.06;;;7.87;66.90
46534;BME280;32260;52.008;4.752;2023-12-14T06:47:36;101772.03;;;7.95;67.46
46534;BME280;32260;52.008;4.752;2023-12-14T06:50:02;101777.28;;;7.95;67.17
46534;BME280;32260;52.008;4.752;2023-12-14T06:52:28;101779.00;;;7.85;66.10
46534;BME280;32260;52.008;4.752;2023-12-14T06:54:55;101784.28;;;7.90;66.64
46534;BME280;32260;52.008;4.752;2023-12-14T06:57:21;101788.69;;;7.86;66.51
46534;BME280;32260;52.008;4.752;2023-12-14T06:59:47;101787.78;;;7.86;66.43
46534;BME280;32260;52.008;4.752;2023-12-14T07:02:13;101792.16;;;7.82;66.57
46534;BME280;32260;52.008;4.752;2023-12-14T07:04:39;101786.00;;;7.82;66.59
46534;BME280;32260;52.008;4.752;2023-12-14T07:07:05;101804.47;;;7.82;66.09
46534;BME280;32260;52.008;4.752;2023-12-14T07:09:31;101792.16;;;7.81;66.01
46534;BME280;32260;52.008;4.752;2023-12-14T07:11:57;101798.25;;;7.73;65.99
46534;BME280;32260;52.008;4.752;2023-12-14T07:14:24;101805.25;;;7.65;65.65
46534;BME280;32260;52.008;4.752;2023-12-14T07:16:50;101804.44;;;7.75;65.80
46534;BME280;32260;52.008;4.752;2023-12-14T07:19:16;101807.06;;;7.78;66.43
46534;BME280;32260;52.008;4.752;2023-12-14T07:21:43;101807.03;;;7.72;66.22
46534;BME280;32260;52.008;4.752;2023-12-14T07:24:09;101807.09;;;7.80;66.13
46534;BME280;32260;52.008;4.752;2023-12-14T07:26:35;101810.63;;;7.84;66.28
46534;BME280;32260;52.008;4.752;2023-12-14T07:29:01;101815.94;;;7.90;66.28
46534;BME280;32260;52.008;4.752;2023-12-14T07:31:27;101823.91;;;7.94;66.40
46534;BME280;32260;52.008;4.752;2023-12-14T07:33:55;101827.44;;;7.98;66.58
46534;BME280;32260;52.008;4.752;2023-12-14T07:36:21;101833.63;;;8.00;65.98
46534;BME280;32260;52.008;4.752;2023-12-14T07:38:48;101839.78;;;8.01;66.71
46534;BME280;32260;52.008;4.752;2023-12-14T07:41:14;101844.19;;;8.03;66.24
46534;BME280;32260;52.008;4.752;2023-12-14T07:43:41;101845.09;;;8.04;65.91
46534;BME280;32260;52.008;4.752;2023-12-14T07:46:07;101841.53;;;8.03;66.02
46534;BME280;32260;52.008;4.752;2023-12-14T07:48:33;101851.22;;;8.04;66.40
46534;BME280;32260;52.008;4.752;2023-12-14T07:50:59;101856.50;;;8.03;65.45
46534;BME280;32260;52.008;4.752;2023-12-14T07:53:25;101855.66;;;8.08;66.40
46534;BME280;32260;52.008;4.752;2023-12-14T07:55:52;101853.06;;;8.12;65.99
46534;BME280;32260;52.008;4.752;2023-12-14T07:58:18;101854.81;;;8.13;66.01
46534;BME280;32260;52.008;4.752;2023-12-14T08:00:44;101852.16;;;8.09;66.15
46534;BME280;32260;52.008;4.752;2023-12-14T08:03:10;101855.69;;;8.12;66.16
46534;BME280;32260;52.008;4.752;2023-12-14T08:05:37;101848.63;;;8.07;66.27
46534;BME280;32260;52.008;4.752;2023-12-14T08:08:03;101851.22;;;8.01;65.85
46534;BME280;32260;52.008;4.752;2023-12-14T08:10:29;101862.63;;;7.96;66.23
46534;BME280;32260;52.008;4.752;2023-12-14T08:12:55;101863.44;;;7.90;66.13
46534;BME280;32260;52.008;4.752;2023-12-14T08:15:21;101872.19;;;7.83;66.32
46534;BME280;32260;52.008;4.752;2023-12-14T08:17:47;101871.28;;;7.79;66.86
46534;BME280;32260;52.008;4.752;2023-12-14T08:20:13;101864.19;;;7.73;67.08
46534;BME280;32260;52.008;4.752;2023-12-14T08:22:40;101876.50;;;7.71;67.20
46534;BME280;32260;52.008;4.752;2023-12-14T08:25:12;101886.09;;;7.66;67.18
46534;BME280;32260;52.008;4.752;2023-12-14T08:27:40;101893.09;;;7.61;67.21
46534;BME280;32260;52.008;4.752;2023-12-14T08:30:06;101895.72;;;7.58;66.70
46534;BME280;32260;52.008;4.752;2023-12-14T08:32:33;101899.19;;;7.54;67.29
46534;BME280;32260;52.008;4.752;2023-12-14T08:34:59;101913.22;;;7.51;67.50
46534;BME280;32260;52.008;4.752;2023-12-14T08:37:25;101915.84;;;7.50;67.54
46534;BME280;32260;52.008;4.752;2023-12-14T08:39:51;101926.41;;;7.50;67.08
46534;BME280;32260;52.008;4.752;2023-12-14T08:42:18;101933.44;;;7.51;67.63
46534;BME280;32260;52.008;4.752;2023-12-14T08:44:44;101933.47;;;7.54;67.80
46534;BME280;32260;52.008;4.752;2023-12-14T08:47:10;101938.78;;;7.57;67.28
46534;BME280;32260;52.008;4.752;2023-12-14T08:49:36;101951.19;;;7.64;67.87
46534;BME280;32260;52.008;4.752;2023-12-14T08:52:03;101956.50;;;7.70;67.33
46534;BME280;32260;52.008;4.752;2023-12-14T08:54:30;101960.94;;;7.74;67.27
46534;BME280;32260;52.008;4.752;2023-12-14T08:56:56;101961.00;;;7.79;67.57
46534;BME280;32260;52.008;4.752;2023-12-14T08:59:22;101970.69;;;7.85;67.40
46534;BME280;32260;52.008;4.752;2023-12-14T09:01:48;101967.19;;;7.86;66.62
46534;BME280;32260;52.008;4.752;2023-12-14T09:04:14;101979.59;;;7.94;66.43
46534;BME280;32260;52.008;4.752;2023-12-14T09:06:41;101977.06;;;8.05;67.06
46534;BME280;32260;52.008;4.752;2023-12-14T09:09:10;101977.13;;;8.12;65.86
46534;BME280;32260;52.008;4.752;2023-12-14T09:11:37;101988.66;;;8.23;67.00
46534;BME280;32260;52.008;4.752;2023-12-14T09:14:03;101989.56;;;8.26;65.92
46534;BME280;32260;52.008;4.752;2023-12-14T09:16:30;101989.59;;;8.31;65.66
46534;BME280;32260;52.008;4.752;2023-12-14T09:18:56;101989.66;;;8.39;66.57
46534;BME280;32260;52.008;4.752;2023-12-14T09:21:22;101997.59;;;8.40;65.73
46534;BME280;32260;52.008;4.752;2023-12-14T09:23:48;101999.34;;;8.41;64.99
46534;BME280;32260;52.008;4.752;2023-12-14T09:26:14;101994.16;;;8.48;64.93
46534;BME280;32260;52.008;4.752;2023-12-14T09:28:40;101995.94;;;8.52;64.45
46534;BME280;32260;52.008;4.752;2023-12-14T09:31:08;101990.69;;;8.55;64.41
46534;BME280;32260;52.008;4.752;2023-12-14T09:33:34;101995.97;;;8.60;64.96
46534;BME280;32260;52.008;4.752;2023-12-14T09:36:00;101996.88;;;8.63;64.70
46534;BME280;32260;52.008;4.752;2023-12-14T09:38:27;102001.34;;;8.67;65.13
46534;BME280;32260;52.008;4.752;2023-12-14T09:40:53;102004.00;;;8.70;65.86
46534;BME280;32260;52.008;4.752;2023-12-14T09:43:19;102013.66;;;8.65;63.87
46534;BME280;32260;52.008;4.752;2023-12-14T09:45:47;102019.81;;;8.66;64.23
46534;BME280;32260;52.008;4.752;2023-12-14T09:48:13;102025.13;;;8.67;64.74
46534;BME280;32260;52.008;4.752;2023-12-14T09:50:41;102034.78;;;8.68;64.31
46534;BME280;32260;52.008;4.752;2023-12-14T09:53:08;102037.47;;;8.70;64.41
46534;BME280;32260;52.008;4.752;2023-12-14T09:55:34;102041.84;;;8.69;64.08
46534;BME280;32260;52.008;4.752;2023-12-14T09:58:00;102035.69;;;8.69;63.63
46534;BME280;32260;52.008;4.752;2023-12-14T10:00:37;102033.97;;;8.74;64.04
46534;BME280;32260;52.008;4.752;2023-12-14T10:05:56;102040.97;;;8.70;64.33
46534;BME280;32260;52.008;4.752;2023-12-14T10:08:24;102043.63;;;8.70;63.89
46534;BME280;32260;52.008;4.752;2023-12-14T10:10:52;102048.91;;;8.70;64.08
46534;BME280;32260;52.008;4.752;2023-12-14T10:13:22;102051.53;;;8.70;64.31
46534;BME280;32260;52.008;4.752;2023-12-14T10:15:54;102050.69;;;8.71;63.66
46534;BME280;32260;52.008;4.752;2023-12-14T10:18:24;102056.00;;;8.78;64.07
46534;BME280;32260;52.008;4.752;2023-12-14T10:20:51;102054.25;;;8.80;64.38
46534;BME280;32260;52.008;4.752;2023-12-14T10:23:17;102056.06;;;8.82;63.90
46534;BME280;32260;52.008;4.752;2023-12-14T10:25:44;102068.41;;;8.88;64.17
46534;BME280;32260;52.008;4.752;2023-12-14T10:28:12;102067.53;;;8.92;64.18
46534;BME280;32260;52.008;4.752;2023-12-14T10:30:40;102068.44;;;8.94;63.32
46534;BME280;32260;52.008;4.752;2023-12-14T10:33:06;102067.59;;;8.98;63.25
46534;BME280;32260;52.008;4.752;2023-12-14T10:35:33;102068.53;;;9.06;63.93
46534;BME280;32260;52.008;4.752;2023-12-14T10:38:06;102065.03;;;9.17;64.12
46534;BME280;32260;52.008;4.752;2023-12-14T10:40:33;102067.69;;;9.15;62.32
46534;BME280;32260;52.008;4.752;2023-12-14T10:43:00;102082.72;;;9.21;62.98
46534;BME280;32260;52.008;4.752;2023-12-14T10:45:31;102066.84;;;9.26;63.70
46534;BME280;32260;52.008;4.752;2023-12-14T10:47:59;102067.75;;;9.26;63.34
46534;BME280;32260;52.008;4.752;2023-12-14T10:50:29;102078.38;;;9.32;62.64
46534;BME280;32260;52.008;4.752;2023-12-14T10:52:56;102081.03;;;9.38;62.37
46534;BME280;32260;52.008;4.752;2023-12-14T10:55:43;102089.03;;;9.52;62.77
46534;BME280;32260;52.008;4.752;2023-12-14T10:58:10;102097.88;;;9.58;61.54
46534;BME280;32260;52.008;4.752;2023-12-14T11:00:37;102093.47;;;9.64;62.64
46534;BME280;32260;52.008;4.752;2023-12-14T11:03:05;102096.16;;;9.69;60.68
46534;BME280;32260;52.008;4.752;2023-12-14T11:05:33;102089.13;;;9.77;60.21
46534;BME280;32260;52.008;4.752;2023-12-14T11:08:03;102085.59;;;9.83;59.99
46534;BME280;32260;52.008;4.752;2023-12-14T11:10:43;102101.53;;;9.87;59.65
46534;BME280;32260;52.008;4.752;2023-12-14T11:13:12;102098.84;;;9.83;59.59
46534;BME280;32260;52.008;4.752;2023-12-14T11:15:45;102098.84;;;9.78;59.03
46534;BME280;32260;52.008;4.752;2023-12-14T11:26:05;102093.53;;;9.72;61.50
46534;BME280;32260;52.008;4.752;2023-12-14T11:33:35;102109.44;;;9.80;61.86
46534;BME280;32260;52.008;4.752;2023-12-14T11:36:02;102106.78;;;9.80;59.11
46534;BME280;32260;52.008;4.752;2023-12-14T11:38:30;102112.13;;;9.84;59.86
46534;BME280;32260;52.008;4.752;2023-12-14T11:40:57;102112.97;;;9.85;59.56
46534;BME280;32260;52.008;4.752;2023-12-14T11:43:23;102111.22;;;9.90;61.50
46534;BME280;32260;52.008;4.752;2023-12-14T11:45:52;102116.53;;;9.87;60.71
46534;BME280;32260;52.008;4.752;2023-12-14T11:48:19;102116.53;;;9.87;62.17
46534;BME280;32260;52.008;4.752;2023-12-14T11:50:46;102123.53;;;9.79;60.13
46534;BME280;32260;52.008;4.752;2023-12-14T11:53:13;102120.91;;;9.77;60.54
46534;BME280;32260;52.008;4.752;2023-12-14T11:55:41;102121.78;;;9.78;61.26
46534;BME280;32260;52.008;4.752;2023-12-14T11:58:10;102125.28;;;9.77;61.01
46534;BME280;32260;52.008;4.752;2023-12-14T12:00:37;102119.13;;;9.75;61.43
46534;BME280;32260;52.008;4.752;2023-12-14T12:03:14;102129.72;;;9.76;60.86
46534;BME280;32260;52.008;4.752;2023-12-14T12:08:19;102133.19;;;9.61;61.11
46534;BME280;32260;52.008;4.752;2023-12-14T12:10:47;102141.16;;;9.70;61.56
46534;BME280;32260;52.008;4.752;2023-12-14T12:13:17;102135.88;;;9.72;60.61
46534;BME280;32260;52.008;4.752;2023-12-14T12:15:44;102142.06;;;9.69;60.19
46534;BME280;32260;52.008;4.752;2023-12-14T12:18:11;102135.81;;;9.64;59.44
46534;BME280;32260;52.008;4.752;2023-12-14T12:20:38;102142.00;;;9.57;59.01
46534;BME280;32260;52.008;4.752;2023-12-14T12:23:05;102138.47;;;9.60;59.58
46534;BME280;32260;52.008;4.752;2023-12-14T12:25:32;102135.81;;;9.64;59.92
46534;BME280;32260;52.008;4.752;2023-12-14T12:28:00;102138.50;;;9.70;61.56
46534;BME280;32260;52.008;4.752;2023-12-14T12:30:27;102135.84;;;9.67;61.19
46534;BME280;32260;52.008;4.752;2023-12-14T12:32:53;102136.72;;;9.65;60.58
46534;BME280;32260;52.008;4.752;2023-12-14T12:35:22;102138.47;;;9.61;60.44
46534;BME280;32260;52.008;4.752;2023-12-14T12:37:49;102128.78;;;9.63;60.67
46534;BME280;32260;52.008;4.752;2023-12-14T12:40:20;102134.91;;;9.59;59.98
46534;BME280;32260;52.008;4.752;2023-12-14T12:42:47;102134.94;;;9.62;59.77
46534;BME280;32260;52.008;4.752;2023-12-14T12:45:15;102131.41;;;9.62;60.39
46534;BME280;32260;52.008;4.752;2023-12-14T12:47:43;102139.38;;;9.66;60.89
46534;BME280;32260;52.008;4.752;2023-12-14T12:50:09;102142.91;;;9.62;60.13
46534;BME280;32260;52.008;4.752;2023-12-14T12:52:36;102142.03;;;9.68;60.53
46534;BME280;32260;52.008;4.752;2023-12-14T12:55:05;102143.78;;;9.70;61.01
46534;BME280;32260;52.008;4.752;2023-12-14T12:57:31;102144.69;;;9.69;61.38
46534;BME280;32260;52.008;4.752;2023-12-14T12:59:57;102136.75;;;9.69;60.92
46534;BME280;32260;52.008;4.752;2023-12-14T13:02:23;102130.59;;;9.74;61.25
46534;BME280;32260;52.008;4.752;2023-12-14T13:04:49;102146.44;;;9.70;61.12
46534;BME280;32260;52.008;4.752;2023-12-14T13:07:16;102153.50;;;9.70;61.09
46534;BME280;32260;52.008;4.752;2023-12-14T13:09:44;102156.16;;;9.70;60.99
46534;BME280;32260;52.008;4.752;2023-12-14T13:12:10;102159.66;;;9.70;61.48
46534;BME280;32260;52.008;4.752;2023-12-14T13:14:36;102162.28;;;9.64;61.38
46534;BME280;32260;52.008;4.752;2023-12-14T13:17:06;102158.75;;;9.56;61.37
46534;BME280;32260;52.008;4.752;2023-12-14T13:19:40;102159.56;;;9.50;61.94
46534;BME280;32260;52.008;4.752;2023-12-14T13:22:06;102152.50;;;9.48;62.01
46534;BME280;32260;52.008;4.752;2023-12-14T13:24:35;102154.28;;;9.47;62.72
46534;BME280;32260;52.008;4.752;2023-12-14T13:27:01;102157.72;;;9.34;62.77
46534;BME280;32260;52.008;4.752;2023-12-14T13:29:27;102158.63;;;9.37;62.84
46534;BME280;32260;52.008;4.752;2023-12-14T13:31:53;102167.47;;;9.39;62.79
46534;BME280;32260;52.008;4.752;2023-12-14T13:34:19;102164.78;;;9.33;63.17
46534;BME280;32260;52.008;4.752;2023-12-14T13:36:48;102173.59;;;9.34;63.11
46534;BME280;32260;52.008;4.752;2023-12-14T13:39:15;102165.69;;;9.38;63.28
46534;BME280;32260;52.008;4.752;2023-12-14T13:41:41;102163.91;;;9.36;63.31
46534;BME280;32260;52.008;4.752;2023-12-14T13:44:07;102166.56;;;9.41;63.69
46534;BME280;32260;52.008;4.752;2023-12-14T13:46:33;102169.22;;;9.37;64.05
46534;BME280;32260;52.008;4.752;2023-12-14T13:48:59;102179.81;;;9.44;63.78
46534;BME280;32260;52.008;4.752;2023-12-14T13:51:26;102180.75;;;9.47;64.00
46534;BME280;32260;52.008;4.752;2023-12-14T13:53:52;102186.00;;;9.46;63.65
46534;BME280;32260;52.008;4.752;2023-12-14T13:56:18;102192.19;;;9.48;63.57
46534;BME280;32260;52.008;4.752;2023-12-14T13:58:44;102188.69;;;9.49;63.60
46534;BME280;32260;52.008;4.752;2023-12-14T14:01:11;102197.53;;;9.51;63.73
46534;BME280;32260;52.008;4.752;2023-12-14T14:03:37;102195.75;;;9.50;64.31
46534;BME280;32260;52.008;4.752;2023-12-14T14:06:04;102200.16;;;9.51;64.00
46534;BME280;32260;52.008;4.752;2023-12-14T14:08:31;102206.38;;;9.56;64.00
46534;BME280;32260;52.008;4.752;2023-12-14T14:10:58;102208.09;;;9.51;63.95
46534;BME280;32260;52.008;4.752;2023-12-14T14:13:25;102205.47;;;9.51;64.02
46534;BME280;32260;52.008;4.752;2023-12-14T14:15:51;102216.03;;;9.51;63.81
46534;BME280;32260;52.008;4.752;2023-12-14T14:18:18;102217.78;;;9.50;63.69
46534;BME280;32260;52.008;4.752;2023-12-14T14:20:44;102217.75;;;9.46;63.56
46534;BME280;32260;52.008;4.752;2023-12-14T14:23:10;102220.41;;;9.47;63.50
46534;BME280;32260;52.008;4.752;2023-12-14T14:25:36;102221.34;;;9.54;63.46
46534;BME280;32260;52.008;4.752;2023-12-14T14:28:03;102218.69;;;9.51;63.77
46534;BME280;32260;52.008;4.752;2023-12-14T14:30:29;102224.84;;;9.53;63.85
46534;BME280;32260;52.008;4.752;2023-12-14T14:32:56;102233.66;;;9.52;63.72
46534;BME280;32260;52.008;4.752;2023-12-14T14:35:23;102234.53;;;9.49;64.05
46534;BME280;32260;52.008;4.752;2023-12-14T14:37:50;102231.91;;;9.51;64.04